createdAt,value
2022-11-16T00:02:19.803Z,5.40
2022-11-16T00:04:49.119Z,6.70
2022-11-16T00:07:18.800Z,10.70
2022-11-16T00:09:48.936Z,6.80
2022-11-16T00:12:18.271Z,6.90
2022-11-16T00:14:47.564Z,7.10
2022-11-16T00:17:19.741Z,5.40
2022-11-16T00:19:49.902Z,5.90
2022-11-16T00:22:19.232Z,5.50
2022-11-16T00:24:48.899Z,5.20
2022-11-16T00:27:18.090Z,5.90
2022-11-16T00:29:47.392Z,6.70
2022-11-16T00:32:16.571Z,5.00
2022-11-16T00:34:46.126Z,6.30
2022-11-16T00:37:15.597Z,6.30
2022-11-16T00:39:45.050Z,5.70
2022-11-16T00:42:14.217Z,6.30
2022-11-16T00:44:43.270Z,7.70
2022-11-16T00:47:12.483Z,6.10
2022-11-16T00:49:41.776Z,5.30
2022-11-16T00:52:10.998Z,5.20
2022-11-16T00:54:40.319Z,7.00
2022-11-16T00:57:09.831Z,5.90
2022-11-16T00:59:39.204Z,6.40
2022-11-16T01:02:08.566Z,5.90
2022-11-16T01:04:37.934Z,5.70
2022-11-16T01:07:07.180Z,5.50
2022-11-16T01:09:36.929Z,6.50
2022-11-16T01:12:13.864Z,9.20
2022-11-16T01:14:49.121Z,6.20
2022-11-16T01:17:19.653Z,5.60
2022-11-16T01:19:48.735Z,6.00
2022-11-16T01:22:18.382Z,6.10
2022-11-16T01:24:50.735Z,5.70
2022-11-16T01:27:20.311Z,7.40
2022-11-16T01:29:49.466Z,7.20
2022-11-16T01:32:18.730Z,7.10
2022-11-16T01:34:48.114Z,5.70
2022-11-16T01:37:18.100Z,5.70
2022-11-16T01:39:47.967Z,6.00
2022-11-16T01:42:27.315Z,6.00
2022-11-16T01:45:40.607Z,5.50
2022-11-16T01:48:12.879Z,6.70
2022-11-16T01:50:43.581Z,4.90
2022-11-16T01:53:15.675Z,6.50
2022-11-16T01:55:48.090Z,7.70
2022-11-16T01:58:24.277Z,6.40
2022-11-16T02:00:53.750Z,6.10
2022-11-16T02:03:23.624Z,7.50
2022-11-16T02:06:30.197Z,5.90
2022-11-16T02:09:42.349Z,6.20
2022-11-16T02:12:40.094Z,7.20
2022-11-16T02:15:33.671Z,6.70
2022-11-16T02:18:26.104Z,6.30
2022-11-16T02:21:37.631Z,7.90
2022-11-16T02:24:49.222Z,6.40
2022-11-16T02:27:36.634Z,6.80
2022-11-16T02:30:08.504Z,6.90
2022-11-16T02:33:01.939Z,7.00
2022-11-16T02:35:45.292Z,6.40
2022-11-16T02:38:26.587Z,6.90
2022-11-16T02:41:06.690Z,8.60
2022-11-16T02:43:50.542Z,8.00
2022-11-16T02:46:32.856Z,7.40
2022-11-16T02:49:08.632Z,6.70
2022-11-16T02:51:41.237Z,6.20
2022-11-16T02:54:19.572Z,6.10
2022-11-16T02:57:20.661Z,6.40
2022-11-16T02:59:56.280Z,6.60
2022-11-16T03:02:34.088Z,6.40
2022-11-16T03:05:34.912Z,5.50
2022-11-16T03:08:18.410Z,6.50
2022-11-16T03:11:13.293Z,6.30
2022-11-16T03:13:44.946Z,7.00
2022-11-16T03:16:45.644Z,5.80
2022-11-16T03:19:24.105Z,8.10
2022-11-16T03:22:24.512Z,8.80
2022-11-16T03:24:54.560Z,6.20
2022-11-16T03:28:04.894Z,7.30
2022-11-16T03:31:03.819Z,6.50
2022-11-16T03:33:51.647Z,6.30
2022-11-16T03:36:25.159Z,6.60
2022-11-16T03:38:57.094Z,5.50
2022-11-16T03:41:29.562Z,5.90
2022-11-16T03:44:00.383Z,6.80
2022-11-16T03:46:30.546Z,5.90
2022-11-16T03:49:02.426Z,6.40
2022-11-16T03:51:31.696Z,5.60
2022-11-16T03:54:01.275Z,8.50
2022-11-16T03:56:31.630Z,5.40
2022-11-16T03:59:01.354Z,7.10
2022-11-16T04:01:30.791Z,7.70
2022-11-16T04:04:00.307Z,6.90
2022-11-16T04:06:48.309Z,6.00
2022-11-16T04:09:35.935Z,6.80
2022-11-16T04:12:23.688Z,6.10
2022-11-16T04:15:11.516Z,6.70
2022-11-16T04:17:59.457Z,7.30
2022-11-16T04:20:47.384Z,6.60
2022-11-16T04:23:36.979Z,7.30
2022-11-16T04:26:13.448Z,6.40
2022-11-16T04:28:43.573Z,5.90
2022-11-16T04:31:31.306Z,7.50
2022-11-16T04:34:19.334Z,6.40
2022-11-16T04:37:07.144Z,6.40
2022-11-16T04:39:36.444Z,6.20
2022-11-16T04:42:15.777Z,8.50
2022-11-16T04:45:03.172Z,5.40
2022-11-16T04:47:32.615Z,6.20
2022-11-16T04:50:01.995Z,6.10
2022-11-16T04:52:31.466Z,8.10
2022-11-16T04:55:00.636Z,6.90
2022-11-16T04:57:29.936Z,5.50
2022-11-16T05:00:00.146Z,5.80
2022-11-16T05:02:29.699Z,8.30
2022-11-16T05:04:59.011Z,6.50
2022-11-16T05:07:28.572Z,7.50
2022-11-16T05:09:58.024Z,6.60
2022-11-16T05:12:29.706Z,5.90
2022-11-16T05:14:59.590Z,5.70
2022-11-16T05:17:30.217Z,6.70
2022-11-16T05:20:19.060Z,8.30
2022-11-16T05:22:56.696Z,5.80
2022-11-16T05:25:28.555Z,6.30
2022-11-16T05:28:04.204Z,6.40
2022-11-16T05:30:33.346Z,6.20
2022-11-16T05:33:07.438Z,7.80
2022-11-16T05:35:36.865Z,6.60
2022-11-16T05:38:08.458Z,5.20
2022-11-16T05:40:37.625Z,7.10
2022-11-16T05:43:06.821Z,8.00
2022-11-16T05:45:36.012Z,8.00
2022-11-16T05:48:05.565Z,6.80
2022-11-16T05:50:38.559Z,5.90
2022-11-16T05:53:10.867Z,5.80
2022-11-16T05:55:40.161Z,6.20
2022-11-16T05:58:09.396Z,7.40
2022-11-16T06:00:40.506Z,7.10
2022-11-16T06:03:09.799Z,6.10
2022-11-16T06:05:40.813Z,6.70
2022-11-16T06:08:10.449Z,6.50
2022-11-16T06:10:39.880Z,6.00
2022-11-16T06:13:09.195Z,5.70
2022-11-16T06:15:41.856Z,6.90
2022-11-16T06:18:11.733Z,7.40
2022-11-16T06:20:42.207Z,7.30
2022-11-16T06:23:11.568Z,6.90
2022-11-16T06:25:41.769Z,6.70
2022-11-16T06:28:11.499Z,6.90
2022-11-16T06:30:42.245Z,5.90
2022-11-16T06:33:11.628Z,6.40
2022-11-16T06:35:40.967Z,6.30
2022-11-16T06:38:10.201Z,5.70
2022-11-16T06:40:40.886Z,7.30
2022-11-16T06:43:10.166Z,5.70
2022-11-16T06:45:40.463Z,6.10
2022-11-16T06:48:10.564Z,5.80
2022-11-16T06:50:40.061Z,8.40
2022-11-16T06:55:55.488Z,5.70
2022-11-16T06:58:24.790Z,6.00
2022-11-16T07:00:53.955Z,5.90
2022-11-16T07:03:23.230Z,6.50
2022-11-16T07:05:52.545Z,5.50
2022-11-16T07:08:21.926Z,7.70
2022-11-16T07:10:51.235Z,6.90
2022-11-16T07:13:20.366Z,5.90
2022-11-16T07:15:49.801Z,6.80
2022-11-16T07:18:19.317Z,7.10
2022-11-16T07:20:48.722Z,5.00
2022-11-16T07:23:17.933Z,7.60
2022-11-16T07:25:48.365Z,6.20
2022-11-16T07:28:17.931Z,5.50
2022-11-16T07:30:47.965Z,7.70
2022-11-16T07:33:18.350Z,6.60
2022-11-16T07:35:47.522Z,6.30
2022-11-16T07:38:18.173Z,6.40
2022-11-16T07:40:47.656Z,6.50
2022-11-16T07:43:16.929Z,5.90
2022-11-16T07:45:46.205Z,6.10
2022-11-16T07:48:15.365Z,8.30
2022-11-16T07:50:44.731Z,7.70
2022-11-16T07:53:13.767Z,6.20
2022-11-16T07:55:43.032Z,6.80
2022-11-16T07:58:13.332Z,7.40
2022-11-16T08:00:42.670Z,7.80
2022-11-16T08:03:12.065Z,7.80
2022-11-16T08:05:41.597Z,7.50
2022-11-16T08:08:11.192Z,7.50
2022-11-16T08:10:40.763Z,5.70
2022-11-16T08:13:10.055Z,7.40
2022-11-16T08:15:39.297Z,6.60
2022-11-16T08:18:08.801Z,6.30
2022-11-16T08:20:38.093Z,6.30
2022-11-16T08:23:07.291Z,5.80
2022-11-16T08:25:36.568Z,5.80
2022-11-16T08:28:05.980Z,8.40
2022-11-16T08:30:35.498Z,5.90
2022-11-16T08:33:04.653Z,6.20
2022-11-16T08:35:35.011Z,5.40
2022-11-16T08:38:04.672Z,6.30
2022-11-16T08:40:34.551Z,7.10
2022-11-16T08:43:03.978Z,6.10
2022-11-16T08:45:35.171Z,7.20
2022-11-16T08:48:04.816Z,6.10
2022-11-16T08:50:55.539Z,5.50
2022-11-16T08:53:24.186Z,7.30
2022-11-16T08:55:53.480Z,6.00
2022-11-16T08:58:22.562Z,7.00
2022-11-16T09:00:52.552Z,6.30
2022-11-16T09:03:21.800Z,6.50
2022-11-16T09:05:51.109Z,6.60
2022-11-16T09:08:20.357Z,6.70
2022-11-16T09:10:49.726Z,5.50
2022-11-16T09:13:19.018Z,6.40
2022-11-16T09:15:48.313Z,6.10
2022-11-16T09:18:17.742Z,5.40
2022-11-16T09:20:46.847Z,7.50
2022-11-16T09:23:19.732Z,7.20
2022-11-16T09:25:55.175Z,6.10
2022-11-16T09:28:25.055Z,5.90
2022-11-16T09:30:54.289Z,5.90
2022-11-16T09:33:23.548Z,6.30
2022-11-16T09:35:52.659Z,6.90
2022-11-16T09:38:40.610Z,6.20
2022-11-16T09:41:16.915Z,6.90
2022-11-16T09:43:54.714Z,5.40
2022-11-16T09:46:59.859Z,5.90
2022-11-16T09:49:41.168Z,6.10
2022-11-16T09:52:45.674Z,5.90
2022-11-16T09:55:33.639Z,6.90
2022-11-16T09:58:14.917Z,6.90
2022-11-16T10:00:52.620Z,7.10
2022-11-16T10:03:21.886Z,7.00
2022-11-16T10:06:10.813Z,7.50
2022-11-16T10:08:51.220Z,7.50
2022-11-16T10:11:49.907Z,5.40
2022-11-16T10:14:45.510Z,5.30
2022-11-16T10:17:59.660Z,5.70
2022-11-16T10:30:19.744Z,6.90
2022-11-16T10:33:06.795Z,6.20
2022-11-16T10:35:48.072Z,7.10
2022-11-16T10:38:23.863Z,5.50
2022-11-16T10:41:05.105Z,7.30
2022-11-16T10:43:35.284Z,6.60
2022-11-16T10:46:21.456Z,5.00
2022-11-16T10:49:23.444Z,6.40
2022-11-16T10:51:52.751Z,6.50
2022-11-16T10:54:22.136Z,7.00
2022-11-16T10:57:05.907Z,6.70
2022-11-16T10:59:45.834Z,5.60
2022-11-16T11:02:36.915Z,6.40
2022-11-16T11:05:22.538Z,6.70
2022-11-16T11:08:25.260Z,6.50
2022-11-16T11:11:25.776Z,6.00
2022-11-16T11:14:13.817Z,5.00
2022-11-16T11:16:43.682Z,4.80
2022-11-16T11:19:31.208Z,5.70
2022-11-16T11:22:04.111Z,5.70
2022-11-16T11:24:49.272Z,7.30
2022-11-16T11:27:27.767Z,7.90
2022-11-16T11:29:59.815Z,7.90
2022-11-16T11:32:41.181Z,6.90
2022-11-16T11:35:30.963Z,9.50
2022-11-16T11:38:08.031Z,6.00
2022-11-16T11:40:38.080Z,6.70
2022-11-16T11:43:23.098Z,7.10
2022-11-16T11:46:47.281Z,6.20
2022-11-16T11:49:42.965Z,6.20
2022-11-16T11:52:32.422Z,6.90
2022-11-16T11:55:03.991Z,7.30
2022-11-16T11:57:44.300Z,6.50
2022-11-16T12:00:19.252Z,6.60
2022-11-16T12:03:04.049Z,7.50
2022-11-16T12:06:20.143Z,6.40
2022-11-16T12:09:38.067Z,5.80
2022-11-16T12:12:39.571Z,6.20
2022-11-16T12:15:31.925Z,5.90
2022-11-16T12:18:44.738Z,7.60
2022-11-16T12:21:30.716Z,6.70
2022-11-16T12:25:04.252Z,7.60
2022-11-16T12:27:53.229Z,5.90
2022-11-16T12:30:25.665Z,7.40
2022-11-16T12:33:25.994Z,7.40
2022-11-16T12:36:24.754Z,7.30
2022-11-16T12:39:30.655Z,5.90
2022-11-16T12:42:38.625Z,6.30
2022-11-16T12:45:19.826Z,6.60
2022-11-16T12:48:27.903Z,6.30
2022-11-16T12:51:30.486Z,7.30
2022-11-16T12:55:23.994Z,6.10
2022-11-16T12:58:33.094Z,5.30
2022-11-16T13:01:27.122Z,6.80
2022-11-16T13:04:02.345Z,5.70
2022-11-16T13:06:58.509Z,5.60
2022-11-16T13:09:38.682Z,5.90
2022-11-16T13:12:16.362Z,6.80
2022-11-16T13:14:57.598Z,6.70
2022-11-16T13:17:40.523Z,5.40
2022-11-16T13:20:27.691Z,5.90
2022-11-16T13:23:33.110Z,6.50
2022-11-16T13:26:25.408Z,6.00
2022-11-16T13:29:12.991Z,4.80
2022-11-16T13:32:18.754Z,4.30
2022-11-16T13:34:48.664Z,5.30
2022-11-16T13:37:39.277Z,6.30
2022-11-16T13:40:10.706Z,4.90
2022-11-16T13:43:18.395Z,6.20
2022-11-16T13:46:02.667Z,7.80
2022-11-16T13:48:39.408Z,6.50
2022-11-16T13:51:17.921Z,6.80
2022-11-16T13:56:52.891Z,6.50
2022-11-16T13:59:29.842Z,6.20
2022-11-16T14:02:41.765Z,6.90
2022-11-16T14:05:35.849Z,6.30
2022-11-16T14:08:48.453Z,5.40
2022-11-16T14:11:41.714Z,6.70
2022-11-16T14:14:15.123Z,6.00
2022-11-16T14:16:51.978Z,6.60
2022-11-16T14:19:48.570Z,6.70
2022-11-16T14:23:02.574Z,5.80
2022-11-16T14:25:54.188Z,6.30
2022-11-16T14:28:35.910Z,6.50
2022-11-16T14:31:25.290Z,7.00
2022-11-16T14:33:59.707Z,6.50
2022-11-16T14:36:49.488Z,6.80
2022-11-16T14:39:33.575Z,5.90
2022-11-16T14:42:08.497Z,7.00
2022-11-16T14:44:41.040Z,7.50
2022-11-16T14:47:29.961Z,7.10
2022-11-16T14:50:01.116Z,7.40
2022-11-16T14:52:39.143Z,8.60
2022-11-16T14:55:24.070Z,7.60
2022-11-16T14:58:09.497Z,6.80
2022-11-16T15:00:40.320Z,6.10
2022-11-16T15:03:13.933Z,5.30
2022-11-16T15:05:45.760Z,6.50
2022-11-16T15:08:23.562Z,7.90
2022-11-16T15:10:54.180Z,7.20
2022-11-16T15:13:28.074Z,7.90
2022-11-16T15:16:21.930Z,7.30
2022-11-16T15:19:03.655Z,6.70
2022-11-16T15:21:32.758Z,6.30
2022-11-16T15:24:28.759Z,6.40
2022-11-16T15:26:51.671Z,6.90
2022-11-16T15:29:23.959Z,8.80
2022-11-16T15:31:53.891Z,6.50
2022-11-16T15:34:23.274Z,6.60
2022-11-16T15:36:52.562Z,6.80
2022-11-16T15:39:25.436Z,8.70
2022-11-16T15:42:02.105Z,5.50
2022-11-16T15:44:34.648Z,6.90
2022-11-16T15:47:05.812Z,7.10
2022-11-16T15:49:40.009Z,6.80
2022-11-16T15:52:09.543Z,6.60
2022-11-16T15:54:58.375Z,8.00
2022-11-16T15:57:27.506Z,6.50
2022-11-16T15:59:59.140Z,6.60
2022-11-16T16:02:33.187Z,7.80
2022-11-16T16:05:02.509Z,7.70
2022-11-16T16:07:43.721Z,6.60
2022-11-16T16:10:22.081Z,5.70
2022-11-16T16:12:57.540Z,6.40
2022-11-16T16:15:37.789Z,6.40
2022-11-16T16:18:40.736Z,7.60
2022-11-16T16:21:15.541Z,7.30
2022-11-16T16:23:57.674Z,7.60
2022-11-16T16:26:27.167Z,9.40
2022-11-16T16:29:10.986Z,7.80
2022-11-16T16:31:40.616Z,6.00
2022-11-16T16:34:13.559Z,7.20
2022-11-16T16:36:43.037Z,7.30
2022-11-16T16:39:13.466Z,6.40
2022-11-16T16:41:42.795Z,6.40
2022-11-16T16:44:17.942Z,7.50
2022-11-16T16:46:47.518Z,8.00
2022-11-16T16:49:20.321Z,8.60
2022-11-16T16:51:50.688Z,6.70
2022-11-16T16:54:20.797Z,7.40
2022-11-16T16:56:51.617Z,7.20
2022-11-16T16:59:21.567Z,8.00
2022-11-16T17:01:57.450Z,6.20
2022-11-16T17:04:28.395Z,7.20
2022-11-16T17:07:01.339Z,7.60
2022-11-16T17:09:35.190Z,6.60
2022-11-16T17:12:06.818Z,9.90
2022-11-16T17:14:37.210Z,6.30
2022-11-16T17:17:07.675Z,7.30
2022-11-16T17:19:38.413Z,5.70
2022-11-16T17:22:12.383Z,8.30
2022-11-16T17:24:42.578Z,5.80
2022-11-16T17:27:12.725Z,6.60
2022-11-16T17:29:44.271Z,7.80
2022-11-16T17:32:17.819Z,6.90
2022-11-16T17:34:47.906Z,7.10
2022-11-16T17:37:26.891Z,7.60
2022-11-16T17:39:58.107Z,7.70
2022-11-16T17:42:28.059Z,6.60
2022-11-16T17:45:01.681Z,5.80
2022-11-16T17:47:41.003Z,6.60
2022-11-16T17:50:11.724Z,7.80
2022-11-16T17:52:42.247Z,6.40
2022-11-16T17:55:16.334Z,7.70
2022-11-16T17:57:47.125Z,7.50
2022-11-16T18:00:18.871Z,6.90
2022-11-16T18:02:49.002Z,7.60
2022-11-16T18:05:19.152Z,8.20
2022-11-16T18:07:48.692Z,6.30
2022-11-16T18:10:19.491Z,6.70
2022-11-16T18:12:49.134Z,7.10
2022-11-16T18:15:37.831Z,7.40
2022-11-16T18:18:08.718Z,7.70
2022-11-16T18:20:39.332Z,6.30
2022-11-16T18:23:08.886Z,7.60
2022-11-16T18:25:38.110Z,6.10
2022-11-16T18:28:07.755Z,6.10
2022-11-16T18:30:37.027Z,7.30
2022-11-16T18:33:06.413Z,7.30
2022-11-16T18:35:36.047Z,7.30
2022-11-16T18:38:07.979Z,7.10
2022-11-16T18:40:37.155Z,6.80
2022-11-16T18:43:06.530Z,7.10
2022-11-16T18:45:35.785Z,6.20
2022-11-16T18:48:05.397Z,7.80
2022-11-16T18:50:35.821Z,7.00
2022-11-16T18:53:05.473Z,7.80
2022-11-16T18:55:34.714Z,8.50
2022-11-16T18:58:09.487Z,7.00
2022-11-16T19:00:52.203Z,6.30
2022-11-16T19:03:22.123Z,9.30
2022-11-16T19:06:08.610Z,6.30
2022-11-16T19:08:40.455Z,6.00
2022-11-16T19:11:16.989Z,8.50
2022-11-16T19:13:46.789Z,6.70
2022-11-16T19:16:16.176Z,6.20
2022-11-16T19:18:45.459Z,7.20
2022-11-16T19:21:19.500Z,7.00
2022-11-16T19:23:52.860Z,10.40
2022-11-16T19:26:25.970Z,6.00
2022-11-16T19:28:56.595Z,7.30
2022-11-16T19:31:31.845Z,7.50
2022-11-16T19:34:08.285Z,8.00
2022-11-16T19:36:38.667Z,7.20
2022-11-16T19:39:07.947Z,7.60
2022-11-16T19:41:37.459Z,6.50
2022-11-16T19:44:06.833Z,7.90
2022-11-16T19:46:38.528Z,8.60
2022-11-16T19:49:14.487Z,6.30
2022-11-16T19:51:46.459Z,7.00
2022-11-16T19:54:16.229Z,6.10
2022-11-16T19:56:51.979Z,7.90
2022-11-16T19:59:24.336Z,6.80
2022-11-16T20:01:53.593Z,9.50
2022-11-16T20:04:23.082Z,8.10
2022-11-16T20:06:52.286Z,8.10
2022-11-16T20:09:21.310Z,9.40
2022-11-16T20:11:50.749Z,8.20
2022-11-16T20:14:20.225Z,8.90
2022-11-16T20:16:51.455Z,8.20
2022-11-16T20:19:21.913Z,8.40
2022-11-16T20:21:51.196Z,7.90
2022-11-16T20:24:20.473Z,8.60
2022-11-16T20:26:50.888Z,7.20
2022-11-16T20:29:21.513Z,7.10
2022-11-16T20:31:50.979Z,9.30
2022-11-16T20:34:21.793Z,9.00
2022-11-16T20:36:51.947Z,8.00
2022-11-16T20:39:22.853Z,7.40
2022-11-16T20:41:52.200Z,7.60
2022-11-16T20:44:23.303Z,7.60
2022-11-16T20:46:55.557Z,8.00
2022-11-16T20:49:25.001Z,8.20
2022-11-16T20:51:54.296Z,7.70
2022-11-16T20:54:25.474Z,8.30
2022-11-16T20:56:54.797Z,6.90
2022-11-16T20:59:24.099Z,6.90
2022-11-16T21:01:56.380Z,6.80
2022-11-16T21:04:25.591Z,8.80
2022-11-16T21:06:54.698Z,8.60
2022-11-16T21:09:24.322Z,7.70
2022-11-16T21:12:12.080Z,7.80
2022-11-16T21:14:41.384Z,7.20
2022-11-16T21:17:10.893Z,6.10
2022-11-16T21:19:49.869Z,7.50
2022-11-16T21:22:32.742Z,7.00
2022-11-16T21:25:01.994Z,6.90
2022-11-16T21:27:31.008Z,6.10
2022-11-16T21:30:00.104Z,6.20
2022-11-16T21:32:29.856Z,7.20
2022-11-16T21:34:58.870Z,9.20
2022-11-16T21:37:28.124Z,6.60
2022-11-16T21:39:57.235Z,6.10
2022-11-16T21:42:26.522Z,7.50
2022-11-16T21:44:55.731Z,8.10
2022-11-16T21:47:24.899Z,6.40
2022-11-16T21:50:24.853Z,7.30
2022-11-16T21:52:43.886Z,6.70
2022-11-16T21:55:13.085Z,6.30
2022-11-16T21:57:42.192Z,6.60
2022-11-16T22:00:16.151Z,7.20
2022-11-16T22:02:45.124Z,6.40
2022-11-16T22:05:32.488Z,7.90
2022-11-16T22:08:08.543Z,7.10
2022-11-16T22:10:37.691Z,7.70
2022-11-16T22:13:07.834Z,7.60
2022-11-16T22:15:36.935Z,7.40
2022-11-16T22:18:06.310Z,7.20
2022-11-16T22:20:38.133Z,8.50
2022-11-16T22:23:07.609Z,6.30
2022-11-16T22:25:38.466Z,8.00
2022-11-16T22:28:24.956Z,7.60
2022-11-16T22:31:06.116Z,7.90
2022-11-16T22:33:36.229Z,7.50
2022-11-16T22:36:06.276Z,9.60
2022-11-16T22:38:36.354Z,8.70
2022-11-16T22:41:06.081Z,8.20
2022-11-16T22:43:36.936Z,7.20
2022-11-16T22:46:07.949Z,7.30
2022-11-16T22:48:43.176Z,7.30
2022-11-16T22:51:27.285Z,7.80
2022-11-16T22:54:03.314Z,8.00
2022-11-16T22:56:35.099Z,9.80
2022-11-16T22:59:04.315Z,12.10
2022-11-16T23:01:34.152Z,9.60
2022-11-16T23:04:03.414Z,11.40
2022-11-16T23:06:32.983Z,11.30
2022-11-16T23:09:02.175Z,11.80
2022-11-16T23:11:49.449Z,13.30
2022-11-16T23:14:37.828Z,11.90
2022-11-16T23:17:08.634Z,10.90
2022-11-16T23:19:55.862Z,11.90
2022-11-16T23:22:43.312Z,11.10
2022-11-16T23:25:32.084Z,15.70
2022-11-16T23:28:11.165Z,11.30
2022-11-16T23:30:41.141Z,12.80
2022-11-16T23:33:12.217Z,16.30
2022-11-16T23:35:41.236Z,13.10
2022-11-16T23:38:11.017Z,12.90
2022-11-16T23:40:42.019Z,13.70
2022-11-16T23:43:31.118Z,14.10
2022-11-16T23:46:00.102Z,14.20
2022-11-16T23:48:29.273Z,14.30
2022-11-16T23:50:58.289Z,16.10
2022-11-16T23:53:27.507Z,13.90
2022-11-16T23:56:05.734Z,15.40
2022-11-16T23:58:35.474Z,13.20
